Time;durP1;ratioP1;P1;durP2;ratioP2;P2;SDS_P1;SDS_P2;PMS_P1;PMS_P2;Temp;Humidity;BMP_temperature;BMP_pressure;BME280_temperature;BME280_humidity;BME280_pressure;Samples;Min_cycle;Max_cycle;Signal;HPM_P1;HPM_P2
2021/11/27 00:00:19;;;;;;;6.10;4.90;;;0.40;99.90;;;;;;7390937;19;20338;-80
2021/11/27 00:02:45;;;;;;;7.28;5.80;;;0.30;99.90;;;;;;7391703;19;20398;-80
2021/11/27 00:05:11;;;;;;;5.53;5.03;;;0.40;99.90;;;;;;7388249;19;20403;-78
2021/11/27 00:07:37;;;;;;;8.60;6.35;;;0.30;99.90;;;;;;7390993;19;20317;-79
2021/11/27 00:10:03;;;;;;;6.18;5.53;;;0.30;99.90;;;;;;7392023;19;20407;-79
2021/11/27 00:12:29;;;;;;;9.00;8.00;;;0.20;99.90;;;;;;7387700;19;20385;-78
2021/11/27 00:14:55;;;;;;;8.57;6.57;;;0.20;99.90;;;;;;7392903;19;20915;-79
2021/11/27 00:17:22;;;;;;;7.80;6.63;;;0.20;99.90;;;;;;7393283;19;20309;-77
2021/11/27 00:19:48;;;;;;;7.23;6.53;;;0.10;99.90;;;;;;7390267;19;20398;-78
2021/11/27 00:22:14;;;;;;;9.83;8.40;;;0.10;99.90;;;;;;7397226;19;20355;-79
2021/11/27 00:24:39;;;;;;;9.90;8.20;;;0.10;99.90;;;;;;7391904;19;20378;-77
2021/11/27 00:27:05;;;;;;;11.15;8.25;;;0.10;99.90;;;;;;7385960;19;20730;-79
2021/11/27 00:29:33;;;;;;;10.37;8.60;;;0.10;99.90;;;;;;7390468;19;21092;-78
2021/11/27 00:31:59;;;;;;;8.00;7.20;;;0.10;99.90;;;;;;7388991;19;20689;-79
2021/11/27 00:34:25;;;;;;;10.23;7.90;;;0.10;99.90;;;;;;7397037;19;20337;-78
2021/11/27 00:36:52;;;;;;;11.05;8.70;;;0.10;99.90;;;;;;7409878;19;20732;-81
2021/11/27 00:39:19;;;;;;;14.20;8.52;;;0.10;99.90;;;;;;7394047;19;20340;-78
2021/11/27 00:41:45;;;;;;;12.25;9.20;;;0.10;99.90;;;;;;7393534;19;20733;-80
2021/11/27 00:44:12;;;;;;;8.18;7.35;;;0.20;99.90;;;;;;7392295;19;20309;-79
2021/11/27 00:46:38;;;;;;;11.77;9.15;;;0.20;99.90;;;;;;7389791;19;20332;-80
2021/11/27 00:49:04;;;;;;;9.57;8.55;;;0.20;99.90;;;;;;7391021;19;20349;-79
2021/11/27 00:51:30;;;;;;;10.60;8.93;;;0.30;99.90;;;;;;7393124;19;20309;-80
2021/11/27 00:53:56;;;;;;;12.48;10.20;;;0.30;99.90;;;;;;7393286;19;20333;-79
2021/11/27 00:56:23;;;;;;;10.23;8.83;;;0.40;99.90;;;;;;7394684;19;20333;-79
2021/11/27 00:58:49;;;;;;;7.70;6.90;;;0.40;99.90;;;;;;7393520;19;20416;-79
2021/11/27 01:01:21;;;;;;;9.30;7.70;;;0.40;99.90;;;;;;7408836;19;20341;-79
2021/11/27 01:03:47;;;;;;;10.82;8.95;;;0.50;99.90;;;;;;7408529;19;20351;-79
2021/11/27 01:06:16;;;;;;;11.43;9.02;;;0.50;99.90;;;;;;7405115;19;20316;-79
2021/11/27 01:08:43;;;;;;;16.08;11.18;;;0.60;99.90;;;;;;7400562;19;20336;-78
2021/11/27 01:11:12;;;;;;;15.32;11.50;;;0.60;99.90;;;;;;7398057;19;20323;-80
2021/11/27 01:13:38;;;;;;;13.00;10.73;;;0.60;99.90;;;;;;7397160;19;20300;-80
2021/11/27 01:16:06;;;;;;;11.85;9.65;;;0.60;99.90;;;;;;7393050;19;20433;-79
2021/11/27 01:18:32;;;;;;;13.18;11.68;;;0.70;99.90;;;;;;7390319;19;20347;-79
2021/11/27 01:21:01;;;;;;;15.90;11.75;;;0.70;99.90;;;;;;7391048;19;20333;-80
2021/11/27 01:23:27;;;;;;;14.32;10.10;;;0.70;99.90;;;;;;7389476;19;20344;-79
2021/11/27 01:25:53;;;;;;;16.02;11.65;;;0.80;99.90;;;;;;7387365;19;20337;-79
2021/11/27 01:28:19;;;;;;;12.38;10.80;;;0.80;99.90;;;;;;7393634;19;20333;-79
2021/11/27 01:30:47;;;;;;;13.20;10.70;;;0.80;99.90;;;;;;7392241;19;20337;-80
2021/11/27 01:33:13;;;;;;;17.50;12.90;;;0.80;99.90;;;;;;7389823;19;20337;-80
2021/11/27 01:35:40;;;;;;;11.65;10.02;;;0.90;99.90;;;;;;7389557;19;20305;-81
2021/11/27 01:38:06;;;;;;;12.98;10.65;;;0.90;99.90;;;;;;7387274;19;20344;-79
2021/11/27 01:40:32;;;;;;;11.80;8.55;;;1.00;99.90;;;;;;7392135;19;20336;-79
2021/11/27 01:42:58;;;;;;;16.47;11.63;;;1.00;99.90;;;;;;7390281;19;20353;-81
2021/11/27 01:45:24;;;;;;;16.53;11.87;;;1.00;99.90;;;;;;7386302;19;20347;-79
2021/11/27 01:47:58;;;;;;;11.55;9.60;;;1.00;99.90;;;;;;7387684;19;20388;-80
2021/11/27 01:50:27;;;;;;;12.57;8.82;;;1.10;99.90;;;;;;7388509;19;20316;-78
2021/11/27 01:52:53;;;;;;;8.68;7.78;;;1.10;99.90;;;;;;7388471;19;20919;-79
2021/11/27 01:55:19;;;;;;;12.00;9.00;;;1.20;99.90;;;;;;7388259;19;20360;-80
2021/11/27 01:57:47;;;;;;;9.15;8.25;;;1.30;99.90;;;;;;7388305;19;20343;-81
2021/11/27 02:00:17;;;;;;;10.80;9.40;;;1.30;99.90;;;;;;7390528;19;21243;-79
2021/11/27 02:02:43;;;;;;;10.35;7.18;;;1.30;99.90;;;;;;7388543;19;20357;-79
2021/11/27 02:05:09;;;;;;;8.40;7.03;;;1.40;99.90;;;;;;7386393;19;20351;-79
2021/11/27 02:07:37;;;;;;;8.33;7.13;;;1.40;99.90;;;;;;7385649;19;20321;-79
2021/11/27 02:10:05;;;;;;;11.82;8.38;;;1.50;99.90;;;;;;7383815;19;20336;-79
2021/11/27 02:12:31;;;;;;;8.23;7.13;;;1.60;99.90;;;;;;7386654;19;20353;-80
2021/11/27 02:14:57;;;;;;;7.60;6.67;;;1.60;99.90;;;;;;7389214;19;20292;-80
2021/11/27 02:17:23;;;;;;;9.13;6.28;;;1.60;99.90;;;;;;7401686;19;20375;-79
2021/11/27 02:19:52;;;;;;;6.93;6.30;;;1.70;99.90;;;;;;7387004;19;20315;-80
2021/11/27 02:22:18;;;;;;;8.93;7.05;;;1.80;99.90;;;;;;7388712;19;20320;-79
2021/11/27 02:24:47;;;;;;;7.45;6.53;;;1.80;99.90;;;;;;7388580;19;20977;-79
2021/11/27 02:27:13;;;;;;;7.70;6.72;;;1.70;99.90;;;;;;7386807;19;21271;-81
2021/11/27 02:29:39;;;;;;;7.60;6.88;;;1.80;99.90;;;;;;7389860;19;20329;-85
2021/11/27 02:32:05;;;;;;;6.93;6.20;;;1.80;99.90;;;;;;7387876;19;20689;-79
2021/11/27 02:34:31;;;;;;;7.63;6.85;;;1.80;99.90;;;;;;7389852;19;20348;-80
2021/11/27 02:37:05;;;;;;;9.10;7.03;;;1.90;99.90;;;;;;7387218;19;20982;-79
2021/11/27 02:39:35;;;;;;;7.72;6.90;;;1.90;99.90;;;;;;7384286;19;20360;-79
2021/11/27 02:42:01;;;;;;;9.02;6.75;;;1.90;99.90;;;;;;7387438;19;20320;-79
2021/11/27 02:44:29;;;;;;;8.57;7.35;;;1.90;99.90;;;;;;7385794;19;20356;-79
2021/11/27 02:46:55;;;;;;;8.02;6.28;;;1.90;99.90;;;;;;7384841;19;20377;-80
2021/11/27 02:49:21;;;;;;;8.63;7.20;;;1.90;99.90;;;;;;7383212;19;20320;-81
2021/11/27 02:51:47;;;;;;;7.88;6.85;;;2.00;99.90;;;;;;7384214;19;20316;-80
2021/11/27 02:54:13;;;;;;;7.68;6.88;;;2.00;99.90;;;;;;7378357;19;20364;-81
2021/11/27 02:56:39;;;;;;;8.15;7.03;;;2.00;99.90;;;;;;7385900;19;20855;-80
2021/11/27 02:59:20;;;;;;;9.23;7.13;;;2.00;99.90;;;;;;7356242;19;20317;-79
2021/11/27 03:01:48;;;;;;;8.33;6.67;;;1.90;99.90;;;;;;7266222;19;2004674;-82
2021/11/27 03:04:20;;;;;;;8.68;6.97;;;1.90;99.90;;;;;;7391950;19;20304;-82
2021/11/27 03:06:48;;;;;;;8.15;7.15;;;1.90;99.90;;;;;;7389072;19;21053;-80
2021/11/27 03:09:17;;;;;;;10.40;7.90;;;1.90;99.90;;;;;;7370148;19;20356;-82
2021/11/27 03:11:46;;;;;;;10.13;8.38;;;1.90;99.90;;;;;;7389186;19;20693;-84
2021/11/27 03:14:12;;;;;;;8.25;7.38;;;1.80;99.90;;;;;;7387404;19;20443;-81
2021/11/27 03:16:39;;;;;;;12.02;8.27;;;1.90;99.90;;;;;;7392486;19;20344;-83
2021/11/27 03:19:10;;;;;;;8.10;6.87;;;1.80;99.90;;;;;;7392496;19;20684;-86
2021/11/27 03:21:39;;;;;;;14.10;8.18;;;1.90;99.90;;;;;;7394862;19;20313;-83
2021/11/27 03:24:07;;;;;;;8.93;7.57;;;2.00;99.90;;;;;;7396797;19;20926;-84
2021/11/27 03:26:33;;;;;;;7.38;6.57;;;1.80;99.90;;;;;;7403686;19;20349;-83
2021/11/27 03:29:00;;;;;;;8.75;7.07;;;1.80;99.90;;;;;;7401329;19;20308;-83
2021/11/27 03:31:26;;;;;;;11.25;8.00;;;1.80;99.90;;;;;;7401925;19;20383;-81
2021/11/27 03:33:54;;;;;;;13.37;9.03;;;1.80;99.90;;;;;;7396954;19;20322;-85
2021/11/27 03:36:20;;;;;;;13.82;10.45;;;1.70;99.90;;;;;;7404249;19;20391;-82
2021/11/27 03:38:46;;;;;;;9.27;7.93;;;1.40;99.90;;;;;;7393006;19;20340;-81
2021/11/27 03:41:12;;;;;;;9.57;8.55;;;1.40;99.90;;;;;;7402330;19;20333;-84
2021/11/27 03:43:39;;;;;;;9.13;7.85;;;1.30;99.90;;;;;;7399026;19;20341;-81
2021/11/27 03:46:05;;;;;;;10.43;8.35;;;1.30;99.90;;;;;;7404730;19;20348;-84
2021/11/27 03:48:36;;;;;;;11.88;8.43;;;1.40;99.90;;;;;;7403376;19;20328;-85
2021/11/27 03:51:13;;;;;;;8.52;7.60;;;1.20;99.90;;;;;;7302853;19;2004476;-81
2021/11/27 03:53:39;;;;;;;8.88;7.82;;;1.20;99.90;;;;;;7401276;19;20323;-81
2021/11/27 03:56:09;;;;;;;9.83;7.40;;;1.20;99.90;;;;;;7402719;19;20324;-79
2021/11/27 03:58:35;;;;;;;9.93;7.40;;;1.10;99.90;;;;;;7400876;19;20316;-80
2021/11/27 04:01:03;;;;;;;9.30;7.22;;;1.10;99.90;;;;;;7405983;19;20308;-80
2021/11/27 04:03:29;;;;;;;8.63;7.43;;;1.00;99.90;;;;;;7395939;19;20350;-83
2021/11/27 04:05:56;;;;;;;11.05;7.60;;;0.90;99.90;;;;;;7402717;19;20388;-80
2021/11/27 04:08:25;;;;;;;9.70;7.87;;;0.90;99.90;;;;;;7401821;19;20312;-81
2021/11/27 04:10:52;;;;;;;9.27;7.07;;;0.80;99.90;;;;;;7400373;19;20357;-82
2021/11/27 04:13:19;;;;;;;10.98;7.90;;;0.80;99.90;;;;;;7398977;19;20319;-80
2021/11/27 04:15:45;;;;;;;10.07;6.23;;;0.80;99.90;;;;;;7399083;19;20397;-82
2021/11/27 04:18:10;;;;;;;9.37;7.60;;;0.70;99.90;;;;;;7399954;19;20339;-83
2021/11/27 04:20:36;;;;;;;8.60;6.93;;;0.70;99.90;;;;;;7395792;19;20324;-81
2021/11/27 04:23:02;;;;;;;9.20;7.80;;;0.70;99.90;;;;;;7393220;19;20347;-80
2021/11/27 04:25:29;;;;;;;13.85;9.95;;;0.70;99.90;;;;;;7391039;19;20329;-80
2021/11/27 04:27:55;;;;;;;8.27;7.20;;;0.50;99.90;;;;;;7390253;19;20316;-79
2021/11/27 04:30:24;;;;;;;8.45;7.55;;;0.40;99.90;;;;;;7391619;19;20304;-81
2021/11/27 04:32:49;;;;;;;9.88;8.65;;;0.30;99.90;;;;;;7394833;19;20325;-81
2021/11/27 04:35:24;;;;;;;10.82;9.68;;;0.20;99.90;;;;;;7391951;19;20354;-81
2021/11/27 04:37:49;;;;;;;10.70;8.65;;;0.20;99.90;;;;;;7387371;19;20304;-83
2021/11/27 04:40:15;;;;;;;13.45;10.07;;;0.10;99.90;;;;;;7390458;19;20333;-80
2021/11/27 04:42:42;;;;;;;11.15;9.23;;;0.10;99.90;;;;;;7391971;19;20851;-82
2021/11/27 04:45:08;;;;;;;14.07;10.25;;;0.10;99.90;;;;;;7393224;19;20431;-82
2021/11/27 04:47:35;;;;;;;12.32;9.20;;;0.10;99.90;;;;;;7391652;19;20661;-81
2021/11/27 04:50:01;;;;;;;10.85;8.13;;;0.10;99.90;;;;;;7389615;19;20325;-81
2021/11/27 04:52:26;;;;;;;14.52;10.13;;;0.10;99.90;;;;;;7396409;19;20343;-80
2021/11/27 04:54:53;;;;;;;9.47;7.70;;;0.10;99.90;;;;;;7387968;19;20317;-82
2021/11/27 04:57:19;;;;;;;10.82;9.38;;;0.10;99.90;;;;;;7393779;19;20337;-80
2021/11/27 04:59:45;;;;;;;13.35;9.73;;;0.20;99.90;;;;;;7394803;19;20341;-81
2021/11/27 05:02:10;;;;;;;9.60;7.23;;;0.20;99.90;;;;;;7390955;19;20323;-81
2021/11/27 05:04:36;;;;;;;8.93;7.77;;;0.10;99.90;;;;;;7370940;19;20340;-79
2021/11/27 05:07:03;;;;;;;8.35;6.80;;;0.10;99.90;;;;;;7392554;19;20333;-82
2021/11/27 05:09:29;;;;;;;9.25;6.88;;;0.10;99.90;;;;;;7389802;19;20312;-80
2021/11/27 05:11:54;;;;;;;9.53;7.30;;;0.20;99.90;;;;;;7392223;19;20343;-81
2021/11/27 05:14:20;;;;;;;9.60;8.40;;;0.10;99.90;;;;;;7387407;19;20316;-81
2021/11/27 05:16:46;;;;;;;11.45;8.80;;;0.10;99.90;;;;;;7392279;19;20324;-80
2021/11/27 05:19:11;;;;;;;10.53;7.27;;;0.10;99.90;;;;;;7389879;19;20349;-81
2021/11/27 05:22:06;;;;;;;9.82;7.07;;;0.00;99.90;;;;;;7286096;19;2004481;-81
2021/11/27 05:24:32;;;;;;;9.65;7.30;;;0.00;99.90;;;;;;7390174;19;20404;-80
2021/11/27 05:27:13;;;;;;;10.10;7.28;;;0.00;99.90;;;;;;7286460;19;2004475;-81
2021/11/27 05:29:51;;;;;;;10.68;8.50;;;-0.10;99.90;;;;;;7289335;19;2004483;-79
2021/11/27 05:35:06;;;;;;;9.02;6.65;;;-0.10;99.90;;;;;;7285987;19;2004600;-80
2021/11/27 05:37:32;;;;;;;8.60;7.32;;;-0.10;99.90;;;;;;7387538;19;20384;-80
2021/11/27 05:40:00;;;;;;;13.07;9.65;;;-0.10;99.90;;;;;;7385521;19;20450;-80
2021/11/27 05:42:26;;;;;;;11.15;8.13;;;-0.10;99.90;;;;;;7392781;19;20412;-82
2021/11/27 05:44:52;;;;;;;10.45;7.97;;;-0.20;99.90;;;;;;7396306;19;20337;-81
2021/11/27 05:47:20;;;;;;;9.20;6.97;;;-0.20;99.90;;;;;;7394916;19;20305;-80
2021/11/27 05:49:49;;;;;;;8.65;7.43;;;-0.20;99.90;;;;;;7394482;19;20296;-82
2021/11/27 05:52:20;;;;;;;9.18;7.75;;;-0.30;99.90;;;;;;7285615;19;2004637;-80
2021/11/27 05:54:46;;;;;;;10.80;8.10;;;-0.30;99.90;;;;;;7385333;19;20697;-79
2021/11/27 05:57:11;;;;;;;11.50;7.87;;;-0.30;99.90;;;;;;7384922;19;20313;-78
2021/11/27 05:59:37;;;;;;;10.20;7.97;;;-0.30;99.90;;;;;;7383196;19;20360;-78
2021/11/27 06:02:03;;;;;;;10.80;7.50;;;-0.40;99.90;;;;;;7385095;19;20345;-79
2021/11/27 06:04:29;;;;;;;10.65;8.18;;;-0.40;99.90;;;;;;7389861;19;20325;-80
2021/11/27 06:06:56;;;;;;;10.00;7.80;;;-0.50;99.90;;;;;;7395463;19;20349;-79
2021/11/27 06:09:22;;;;;;;12.95;9.30;;;-0.50;99.90;;;;;;7391375;19;20997;-79
2021/11/27 06:11:48;;;;;;;11.75;9.63;;;-0.50;99.90;;;;;;7387180;19;20308;-79
2021/11/27 06:14:13;;;;;;;10.13;8.93;;;-0.60;99.90;;;;;;7383546;19;20316;-79
2021/11/27 06:16:39;;;;;;;13.15;11.02;;;-0.60;99.90;;;;;;7384715;19;20380;-79
2021/11/27 06:19:05;;;;;;;13.32;10.27;;;-0.60;99.90;;;;;;7382361;19;20309;-79
2021/11/27 06:21:30;;;;;;;12.70;10.37;;;-0.50;99.90;;;;;;7384493;19;20323;-79
2021/11/27 06:23:56;;;;;;;11.85;10.50;;;-0.50;99.90;;;;;;7380642;19;20923;-79
2021/11/27 06:26:23;;;;;;;12.68;10.30;;;-0.50;99.90;;;;;;7383662;19;20356;-80
2021/11/27 06:28:50;;;;;;;17.65;11.48;;;-0.50;99.90;;;;;;7384675;19;20631;-81
2021/11/27 06:31:16;;;;;;;14.85;11.35;;;-0.40;99.90;;;;;;7380739;19;20304;-81
2021/11/27 06:33:46;;;;;;;15.35;11.13;;;-0.40;99.90;;;;;;7386502;19;20329;-79
2021/11/27 06:36:12;;;;;;;14.90;10.95;;;-0.40;99.90;;;;;;7386003;19;20312;-82
2021/11/27 06:38:38;;;;;;;16.13;12.02;;;-0.40;99.90;;;;;;7389495;19;20327;-82
2021/11/27 06:41:06;;;;;;;15.52;11.95;;;-0.30;99.90;;;;;;7388393;19;20392;-80
2021/11/27 06:43:48;;;;;;;13.35;11.00;;;-0.30;99.90;;;;;;7286175;19;2007320;-83
2021/11/27 06:46:20;;;;;;;13.88;11.38;;;-0.30;99.90;;;;;;7387818;19;20870;-80
2021/11/27 06:48:46;;;;;;;13.90;9.77;;;-0.30;99.90;;;;;;7386047;19;20390;-80
2021/11/27 06:51:14;;;;;;;12.50;10.07;;;-0.30;99.90;;;;;;7387446;19;20301;-81
2021/11/27 06:53:41;;;;;;;14.93;10.82;;;-0.30;99.90;;;;;;7387062;19;20361;-80
2021/11/27 06:56:07;;;;;;;15.47;10.53;;;-0.30;99.90;;;;;;7387769;19;20312;-80
2021/11/27 06:58:33;;;;;;;14.77;11.10;;;-0.30;99.90;;;;;;7388587;19;20324;-82
2021/11/27 07:01:24;;;;;;;14.25;10.50;;;-0.30;99.90;;;;;;7280451;19;2004469;-80
2021/11/27 07:04:13;;;;;;;13.23;9.57;;;-0.20;99.90;;;;;;7387011;19;20412;-80
2021/11/27 07:07:11;;;;;;;9.35;8.30;;;-0.20;99.90;;;;;;7283836;19;2004577;-82
2021/11/27 07:09:48;;;;;;;8.30;6.60;;;-0.20;99.90;;;;;;7382964;19;20333;-80
2021/11/27 07:12:28;;;;;;;7.78;6.85;;;-0.20;99.90;;;;;;7386339;19;20352;-80
2021/11/27 07:14:54;;;;;;;8.73;7.10;;;-0.20;99.90;;;;;;7385531;19;20381;-81
2021/11/27 07:17:19;;;;;;;8.52;6.70;;;-0.20;99.90;;;;;;7388810;19;20324;-80
2021/11/27 07:19:45;;;;;;;10.27;7.97;;;-0.20;99.90;;;;;;7390973;19;20337;-81
2021/11/27 07:22:11;;;;;;;7.03;6.33;;;-0.20;99.90;;;;;;7401707;19;20325;-81
2021/11/27 07:24:37;;;;;;;10.40;8.23;;;-0.20;99.90;;;;;;7392399;19;20316;-80
2021/11/27 07:27:06;;;;;;;9.85;7.80;;;-0.20;99.90;;;;;;7391793;19;20663;-80
2021/11/27 07:29:38;;;;;;;10.40;8.65;;;-0.20;99.90;;;;;;7396063;19;20839;-80
2021/11/27 07:32:04;;;;;;;12.43;10.07;;;-0.30;99.90;;;;;;7394146;19;20308;-80
2021/11/27 07:34:30;;;;;;;10.90;8.70;;;-0.20;99.90;;;;;;7391122;19;20356;-81
2021/11/27 07:36:57;;;;;;;11.00;9.20;;;-0.10;99.90;;;;;;7392092;19;20344;-80
2021/11/27 07:39:23;;;;;;;8.07;7.05;;;-0.20;99.90;;;;;;7390665;19;20327;-81
2021/11/27 07:41:49;;;;;;;7.60;6.72;;;-0.30;99.90;;;;;;7387940;19;20340;-79
2021/11/27 07:44:20;;;;;;;8.77;7.78;;;-0.30;99.90;;;;;;7390272;19;20354;-80
2021/11/27 07:47:04;;;;;;;9.43;7.50;;;-0.30;99.90;;;;;;7389220;19;20305;-81
2021/11/27 07:50:02;;;;;;;8.88;7.65;;;-0.20;99.90;;;;;;7288264;19;2004552;-80
2021/11/27 07:52:54;;;;;;;8.18;6.85;;;-0.20;99.90;;;;;;7284629;19;2004445;-79
2021/11/27 07:55:20;;;;;;;8.15;7.35;;;-0.20;99.90;;;;;;7385379;19;20372;-78
2021/11/27 07:57:45;;;;;;;9.70;7.90;;;-0.20;99.90;;;;;;7383404;19;20751;-78
2021/11/27 08:00:12;;;;;;;8.40;7.60;;;-0.10;99.90;;;;;;7383637;19;20313;-77
2021/11/27 08:02:42;;;;;;;9.95;8.65;;;-0.20;99.90;;;;;;7385069;19;20360;-79
2021/11/27 08:05:08;;;;;;;8.47;7.57;;;-0.20;99.90;;;;;;7386725;19;20321;-78
2021/11/27 08:07:35;;;;;;;10.80;7.93;;;-0.20;99.90;;;;;;7383786;19;20316;-79
2021/11/27 08:10:05;;;;;;;11.27;8.45;;;-0.10;99.90;;;;;;7386226;19;20316;-79
2021/11/27 08:12:30;;;;;;;10.50;8.55;;;-0.10;99.90;;;;;;7387734;19;20316;-80
2021/11/27 08:14:56;;;;;;;12.13;8.48;;;-0.10;99.90;;;;;;7385246;19;20319;-80
2021/11/27 08:17:22;;;;;;;11.73;8.90;;;-0.10;99.90;;;;;;7389436;19;20732;-80
2021/11/27 08:19:47;;;;;;;12.27;8.55;;;0.00;99.90;;;;;;7384189;19;20389;-80
2021/11/27 08:22:13;;;;;;;11.30;8.90;;;0.00;99.90;;;;;;7386828;19;20328;-79
2021/11/27 08:24:39;;;;;;;9.27;7.93;;;0.00;99.90;;;;;;7386152;19;20316;-79
2021/11/27 08:27:04;;;;;;;11.23;9.23;;;0.00;99.90;;;;;;7386781;19;20403;-79
2021/11/27 08:29:30;;;;;;;11.93;9.03;;;0.10;99.90;;;;;;7384628;19;21265;-79
2021/11/27 08:31:56;;;;;;;9.13;7.57;;;0.10;99.90;;;;;;7388011;19;20847;-80
2021/11/27 08:34:21;;;;;;;13.52;9.68;;;0.10;99.90;;;;;;7387834;19;20364;-82
2021/11/27 08:36:47;;;;;;;10.03;8.20;;;0.10;99.90;;;;;;7388084;19;20320;-77
2021/11/27 08:39:13;;;;;;;8.05;6.95;;;0.20;99.90;;;;;;7392845;19;20424;-79
2021/11/27 08:41:39;;;;;;;11.27;7.78;;;0.20;99.90;;;;;;7405288;19;20316;-80
2021/11/27 08:44:05;;;;;;;6.27;5.67;;;0.30;99.90;;;;;;7403909;19;20348;-81
2021/11/27 08:46:31;;;;;;;6.72;6.10;;;0.30;99.90;;;;;;7393884;19;20347;-79
2021/11/27 08:48:58;;;;;;;10.93;8.98;;;0.30;99.90;;;;;;7390767;19;20741;-79
2021/11/27 08:51:23;;;;;;;9.25;7.63;;;0.40;99.90;;;;;;7392451;19;20653;-79
2021/11/27 08:53:49;;;;;;;8.48;6.75;;;0.50;99.90;;;;;;7384000;19;20297;-78
2021/11/27 08:56:15;;;;;;;7.80;7.00;;;0.60;99.90;;;;;;7383914;19;20317;-79
2021/11/27 08:58:42;;;;;;;12.60;8.32;;;0.60;99.90;;;;;;7385132;19;20881;-79
2021/11/27 09:01:08;;;;;;;13.65;8.27;;;0.70;99.90;;;;;;7383206;19;20317;-79
2021/11/27 09:03:34;;;;;;;10.20;8.05;;;0.80;99.90;;;;;;7385097;19;20327;-79
2021/11/27 09:06:03;;;;;;;7.90;7.10;;;0.80;99.90;;;;;;7383216;19;20329;-79
2021/11/27 09:08:29;;;;;;;17.65;10.93;;;0.90;99.90;;;;;;7383112;19;21297;-79
2021/11/27 09:10:54;;;;;;;12.90;8.13;;;1.00;99.90;;;;;;7381708;19;20320;-79
2021/11/27 09:13:20;;;;;;;10.17;7.67;;;1.10;99.90;;;;;;7383755;19;20324;-79
2021/11/27 09:15:46;;;;;;;14.45;9.48;;;1.10;99.90;;;;;;7374398;19;20321;-79
2021/11/27 09:18:12;;;;;;;15.00;9.80;;;1.20;99.90;;;;;;7386752;19;20396;-80
2021/11/27 09:20:38;;;;;;;14.85;9.07;;;1.20;99.90;;;;;;7380207;19;20364;-78
2021/11/27 09:23:05;;;;;;;9.25;8.27;;;1.30;99.90;;;;;;7385270;19;20324;-79
2021/11/27 09:25:31;;;;;;;13.10;7.18;;;1.50;99.90;;;;;;7366172;19;20305;-78
2021/11/27 09:27:57;;;;;;;9.98;8.48;;;1.50;99.90;;;;;;7383938;19;20416;-78
2021/11/27 09:30:24;;;;;;;16.83;8.13;;;1.60;99.90;;;;;;7380970;19;20293;-78
2021/11/27 09:32:50;;;;;;;13.43;10.07;;;1.70;99.90;;;;;;7384353;19;20406;-80
2021/11/27 09:35:16;;;;;;;15.65;12.63;;;1.80;99.90;;;;;;7377588;19;20325;-79
2021/11/27 09:37:42;;;;;;;16.35;11.90;;;1.90;99.90;;;;;;7385042;19;20682;-79
2021/11/27 09:40:09;;;;;;;13.03;10.63;;;2.00;99.90;;;;;;7378859;19;20309;-82
2021/11/27 09:42:35;;;;;;;11.50;7.85;;;2.10;99.90;;;;;;7381237;19;20353;-79
2021/11/27 09:45:01;;;;;;;9.60;7.32;;;2.30;99.90;;;;;;7382247;19;20319;-79
2021/11/27 09:47:26;;;;;;;10.00;7.85;;;2.50;99.90;;;;;;7381975;19;20332;-80
2021/11/27 09:49:52;;;;;;;10.90;7.23;;;2.50;99.90;;;;;;5977449;19;10001808;-79
2021/11/27 09:52:18;;;;;;;8.60;7.70;;;2.60;99.90;;;;;;7383627;19;21030;-79
2021/11/27 09:54:43;;;;;;;8.88;7.38;;;2.60;99.90;;;;;;7388835;19;20352;-80
2021/11/27 09:57:10;;;;;;;9.07;7.63;;;2.60;99.90;;;;;;7386022;19;20309;-79
2021/11/27 09:59:37;;;;;;;10.73;7.90;;;2.60;99.90;;;;;;7378417;19;20316;-80
2021/11/27 10:02:09;;;;;;;8.88;7.88;;;2.70;99.90;;;;;;7381600;19;20337;-79
2021/11/27 10:04:35;;;;;;;9.47;7.10;;;2.70;99.90;;;;;;7383755;19;20352;-80
2021/11/27 10:07:01;;;;;;;9.00;6.70;;;2.70;99.90;;;;;;7384871;19;20315;-80
2021/11/27 10:09:29;;;;;;;9.73;7.18;;;2.70;99.90;;;;;;7383045;19;20374;-82
2021/11/27 10:11:55;;;;;;;11.40;7.93;;;2.70;99.90;;;;;;7380389;19;20349;-77
2021/11/27 10:14:21;;;;;;;7.70;6.75;;;2.80;99.90;;;;;;7380060;19;20348;-78
2021/11/27 10:16:59;;;;;;;8.82;7.30;;;2.90;99.90;;;;;;7379467;19;20341;-79
2021/11/27 10:19:26;;;;;;;9.27;7.47;;;3.00;99.90;;;;;;7374525;19;21271;-77
2021/11/27 10:21:59;;;;;;;8.70;7.80;;;3.10;99.90;;;;;;7377441;19;21306;-78
2021/11/27 10:24:26;;;;;;;8.30;6.93;;;3.10;99.90;;;;;;7379665;19;20332;-78
2021/11/27 10:26:52;;;;;;;7.67;6.87;;;3.20;99.90;;;;;;7377050;19;20704;-79
2021/11/27 10:29:23;;;;;;;8.10;7.27;;;3.20;99.90;;;;;;7375327;19;20370;-78
2021/11/27 10:31:49;;;;;;;7.53;6.70;;;3.20;99.90;;;;;;7379433;19;20336;-79
2021/11/27 10:34:17;;;;;;;8.50;6.57;;;3.30;99.90;;;;;;7372407;19;20309;-79
2021/11/27 10:36:43;;;;;;;7.45;6.68;;;3.30;99.90;;;;;;7383193;19;20830;-79
2021/11/27 10:39:09;;;;;;;6.93;6.22;;;3.50;99.90;;;;;;7374394;19;20339;-77
2021/11/27 10:41:37;;;;;;;7.63;6.90;;;3.50;99.90;;;;;;7376414;19;20316;-78
2021/11/27 10:44:08;;;;;;;9.50;7.38;;;3.60;99.90;;;;;;7378810;19;20392;-78
2021/11/27 10:46:35;;;;;;;10.23;7.38;;;3.60;99.90;;;;;;7379540;19;20993;-77
2021/11/27 10:49:02;;;;;;;7.38;6.13;;;3.60;99.90;;;;;;7378376;19;20300;-77
2021/11/27 10:51:28;;;;;;;9.35;7.53;;;3.60;99.90;;;;;;7376937;19;21062;-78
2021/11/27 10:54:02;;;;;;;8.83;7.70;;;3.70;99.90;;;;;;7379343;19;20333;-79
2021/11/27 10:56:57;;;;;;;7.25;6.55;;;3.60;99.90;;;;;;7385732;19;20325;-79
2021/11/27 10:59:23;;;;;;;9.13;7.10;;;3.60;99.90;;;;;;7379433;19;20320;-79
2021/11/27 11:02:01;;;;;;;7.75;6.90;;;3.50;99.90;;;;;;7382733;19;20394;-77
2021/11/27 11:04:26;;;;;;;8.43;6.93;;;3.50;99.90;;;;;;7385738;19;20754;-78
2021/11/27 11:07:30;;;;;;;8.20;6.87;;;3.50;99.90;;;;;;7386504;19;20329;-79
2021/11/27 11:10:06;;;;;;;7.45;6.68;;;3.50;99.90;;;;;;7280721;19;2016213;-78
2021/11/27 11:12:36;;;;;;;9.60;6.57;;;3.60;99.90;;;;;;7393704;19;20341;-79
2021/11/27 11:15:14;;;;;;;6.93;5.68;;;3.60;99.90;;;;;;7391602;19;20349;-79
2021/11/27 11:17:40;;;;;;;10.27;8.05;;;3.70;99.90;;;;;;7388015;19;20328;-77
2021/11/27 11:20:20;;;;;;;7.93;6.68;;;3.60;99.90;;;;;;7383521;19;20324;-78
2021/11/27 11:23:09;;;;;;;7.43;6.38;;;3.60;99.90;;;;;;7387593;19;20349;-79
2021/11/27 11:26:13;;;;;;;7.50;6.07;;;3.60;99.90;;;;;;7384029;19;20369;-79
2021/11/27 11:28:47;;;;;;;8.50;6.25;;;3.60;99.90;;;;;;7279155;19;2004711;-78
2021/11/27 11:31:34;;;;;;;6.63;5.65;;;3.60;99.90;;;;;;7382171;19;20340;-81
2021/11/27 11:34:01;;;;;;;7.47;6.25;;;3.60;99.90;;;;;;7386399;19;20321;-80
2021/11/27 11:36:27;;;;;;;7.18;6.47;;;3.70;99.90;;;;;;7386125;19;20325;-79
2021/11/27 11:38:53;;;;;;;7.37;6.17;;;3.80;99.90;;;;;;7386067;19;20358;-81
2021/11/27 11:41:20;;;;;;;8.77;6.68;;;3.80;99.90;;;;;;7383153;19;20321;-81
2021/11/27 11:43:47;;;;;;;7.68;6.60;;;3.90;99.90;;;;;;7383019;19;20794;-79
2021/11/27 11:46:12;;;;;;;7.00;5.90;;;3.90;99.90;;;;;;7387722;19;20309;-80
2021/11/27 11:48:39;;;;;;;6.47;5.70;;;3.90;99.90;;;;;;7385162;19;20329;-80
2021/11/27 11:51:22;;;;;;;7.82;5.60;;;3.90;99.90;;;;;;7380118;19;20855;-79
2021/11/27 11:53:49;;;;;;;9.10;6.63;;;4.00;99.90;;;;;;7383610;19;20332;-81
2021/11/27 11:56:17;;;;;;;11.60;6.63;;;4.00;99.90;;;;;;7384341;19;20341;-81
2021/11/27 11:58:42;;;;;;;9.15;6.28;;;4.00;99.90;;;;;;7385015;19;20336;-79
2021/11/27 12:01:17;;;;;;;6.93;6.22;;;4.10;99.90;;;;;;7382056;19;20881;-80
2021/11/27 12:03:43;;;;;;;6.80;6.03;;;4.00;99.90;;;;;;7383616;19;20405;-80
2021/11/27 12:06:10;;;;;;;7.55;6.55;;;4.00;99.90;;;;;;7381880;19;20372;-80
2021/11/27 12:08:48;;;;;;;8.02;6.60;;;4.00;99.90;;;;;;7381156;19;20336;-81
2021/11/27 12:11:38;;;;;;;7.10;5.68;;;4.10;99.90;;;;;;7383693;19;20317;-81
2021/11/27 12:14:05;;;;;;;7.47;5.93;;;4.20;99.90;;;;;;7286171;19;2008275;-80
2021/11/27 12:16:31;;;;;;;8.85;6.40;;;4.30;99.90;;;;;;7381183;19;20356;-79
2021/11/27 12:19:10;;;;;;;6.28;5.68;;;4.30;99.90;;;;;;7383628;19;20308;-79
2021/11/27 12:21:36;;;;;;;8.13;6.72;;;4.40;99.90;;;;;;7382683;19;20321;-80
2021/11/27 12:24:02;;;;;;;21.37;9.00;;;4.40;99.90;;;;;;7384152;19;20965;-81
2021/11/27 12:26:28;;;;;;;10.75;6.85;;;4.40;99.90;;;;;;7382395;19;20325;-79
2021/11/27 12:28:55;;;;;;;8.38;6.32;;;4.40;99.90;;;;;;7386578;19;20313;-83
2021/11/27 12:31:24;;;;;;;6.13;5.35;;;4.40;99.90;;;;;;7386086;19;20312;-81
2021/11/27 12:33:59;;;;;;;16.27;7.47;;;4.50;99.90;;;;;;7384796;19;20325;-80
2021/11/27 12:36:25;;;;;;;7.57;5.80;;;4.50;99.90;;;;;;7386995;19;20329;-79
2021/11/27 12:39:16;;;;;;;6.63;4.87;;;4.50;99.90;;;;;;7382372;19;20347;-80
2021/11/27 12:41:49;;;;;;;7.40;6.43;;;4.50;99.90;;;;;;7384421;19;20402;-83
2021/11/27 12:44:45;;;;;;;7.43;5.90;;;4.60;99.90;;;;;;7383383;19;20789;-80
2021/11/27 12:47:16;;;;;;;9.32;6.68;;;4.60;99.90;;;;;;7278380;19;2005757;-79
2021/11/27 12:49:45;;;;;;;8.90;5.50;;;4.60;99.90;;;;;;7380286;19;20320;-80
2021/11/27 12:52:14;;;;;;;5.65;5.00;;;4.60;99.90;;;;;;7381864;19;20353;-80
2021/11/27 12:54:41;;;;;;;6.68;5.78;;;4.60;99.90;;;;;;7380353;19;20309;-80
2021/11/27 12:57:07;;;;;;;6.25;4.60;;;4.60;99.90;;;;;;7385505;19;20808;-81